sensor_id;sensor_type;location;lat;lon;timestamp;P1;durP1;ratioP1;P2;durP2;ratioP2
23716;SDS011;22094;52.130;5.598;2023-03-26T00:00:39;47.10;;;11.70;;
23716;SDS011;22094;52.130;5.598;2023-03-26T00:03:07;41.53;;;9.93;;
23716;SDS011;22094;52.130;5.598;2023-03-26T00:05:37;55.85;;;10.38;;
23716;SDS011;22094;52.130;5.598;2023-03-26T00:08:03;63.40;;;11.00;;
23716;SDS011;22094;52.130;5.598;2023-03-26T00:10:29;48.22;;;9.30;;
23716;SDS011;22094;52.130;5.598;2023-03-26T00:12:55;51.30;;;9.35;;
23716;SDS011;22094;52.130;5.598;2023-03-26T00:15:20;52.25;;;10.43;;
23716;SDS011;22094;52.130;5.598;2023-03-26T00:17:46;58.50;;;9.43;;
23716;SDS011;22094;52.130;5.598;2023-03-26T00:20:12;50.38;;;8.93;;
23716;SDS011;22094;52.130;5.598;2023-03-26T00:22:38;41.90;;;8.10;;
23716;SDS011;22094;52.130;5.598;2023-03-26T00:25:05;44.88;;;8.60;;
23716;SDS011;22094;52.130;5.598;2023-03-26T00:27:32;41.22;;;7.93;;
23716;SDS011;22094;52.130;5.598;2023-03-26T00:29:58;34.63;;;7.60;;
23716;SDS011;22094;52.130;5.598;2023-03-26T00:32:25;36.67;;;7.43;;
23716;SDS011;22094;52.130;5.598;2023-03-26T00:34:52;37.65;;;8.00;;
23716;SDS011;22094;52.130;5.598;2023-03-26T00:37:20;50.17;;;7.65;;
23716;SDS011;22094;52.130;5.598;2023-03-26T00:39:50;48.10;;;7.53;;
23716;SDS011;22094;52.130;5.598;2023-03-26T00:42:23;46.13;;;7.32;;
23716;SDS011;22094;52.130;5.598;2023-03-26T00:44:49;37.88;;;8.43;;
23716;SDS011;22094;52.130;5.598;2023-03-26T00:47:19;40.08;;;8.27;;
23716;SDS011;22094;52.130;5.598;2023-03-26T00:49:45;35.22;;;6.50;;
23716;SDS011;22094;52.130;5.598;2023-03-26T00:52:12;42.08;;;7.10;;
23716;SDS011;22094;52.130;5.598;2023-03-26T00:54:42;31.73;;;6.28;;
23716;SDS011;22094;52.130;5.598;2023-03-26T00:57:12;40.28;;;6.40;;
23716;SDS011;22094;52.130;5.598;2023-03-26T00:59:38;38.50;;;6.70;;
23716;SDS011;22094;52.130;5.598;2023-03-26T01:02:05;44.80;;;7.07;;
23716;SDS011;22094;52.130;5.598;2023-03-26T01:04:34;49.85;;;7.43;;
23716;SDS011;22094;52.130;5.598;2023-03-26T01:07:08;53.83;;;7.47;;
23716;SDS011;22094;52.130;5.598;2023-03-26T01:09:38;40.70;;;6.68;;
23716;SDS011;22094;52.130;5.598;2023-03-26T01:12:11;33.25;;;6.15;;
23716;SDS011;22094;52.130;5.598;2023-03-26T01:14:41;36.58;;;6.10;;
23716;SDS011;22094;52.130;5.598;2023-03-26T01:17:07;39.35;;;6.35;;
23716;SDS011;22094;52.130;5.598;2023-03-26T01:19:44;38.92;;;6.97;;
23716;SDS011;22094;52.130;5.598;2023-03-26T01:22:19;36.85;;;6.82;;
23716;SDS011;22094;52.130;5.598;2023-03-26T01:24:47;36.72;;;6.40;;
23716;SDS011;22094;52.130;5.598;2023-03-26T01:27:19;33.22;;;6.30;;
23716;SDS011;22094;52.130;5.598;2023-03-26T01:38:47;35.92;;;7.13;;
23716;SDS011;22094;52.130;5.598;2023-03-26T01:46:52;34.67;;;7.13;;
23716;SDS011;22094;52.130;5.598;2023-03-26T01:49:19;24.63;;;6.43;;
23716;SDS011;22094;52.130;5.598;2023-03-26T01:51:45;31.17;;;7.28;;
23716;SDS011;22094;52.130;5.598;2023-03-26T01:54:21;32.35;;;6.70;;
23716;SDS011;22094;52.130;5.598;2023-03-26T01:56:59;27.83;;;6.95;;
23716;SDS011;22094;52.130;5.598;2023-03-26T02:08:28;25.63;;;6.47;;
23716;SDS011;22094;52.130;5.598;2023-03-26T02:11:19;31.58;;;6.88;;
23716;SDS011;22094;52.130;5.598;2023-03-26T02:13:45;35.25;;;7.35;;
23716;SDS011;22094;52.130;5.598;2023-03-26T02:16:12;45.05;;;7.75;;
23716;SDS011;22094;52.130;5.598;2023-03-26T02:18:40;27.48;;;6.93;;
23716;SDS011;22094;52.130;5.598;2023-03-26T02:21:08;33.30;;;7.10;;
23716;SDS011;22094;52.130;5.598;2023-03-26T02:23:39;43.13;;;8.07;;
23716;SDS011;22094;52.130;5.598;2023-03-26T02:26:10;32.15;;;6.97;;
23716;SDS011;22094;52.130;5.598;2023-03-26T02:28:37;35.60;;;7.07;;
23716;SDS011;22094;52.130;5.598;2023-03-26T02:31:03;44.30;;;8.35;;
23716;SDS011;22094;52.130;5.598;2023-03-26T02:33:29;29.70;;;7.72;;
23716;SDS011;22094;52.130;5.598;2023-03-26T02:35:55;32.97;;;7.25;;
23716;SDS011;22094;52.130;5.598;2023-03-26T02:38:26;28.48;;;6.75;;
23716;SDS011;22094;52.130;5.598;2023-03-26T02:40:53;23.75;;;6.95;;
23716;SDS011;22094;52.130;5.598;2023-03-26T02:43:19;32.33;;;7.43;;
23716;SDS011;22094;52.130;5.598;2023-03-26T02:45:45;35.50;;;7.90;;
23716;SDS011;22094;52.130;5.598;2023-03-26T02:48:11;40.92;;;8.65;;
23716;SDS011;22094;52.130;5.598;2023-03-26T02:50:39;43.90;;;9.25;;
23716;SDS011;22094;52.130;5.598;2023-03-26T02:53:21;38.75;;;9.00;;
23716;SDS011;22094;52.130;5.598;2023-03-26T02:55:58;43.50;;;9.18;;
23716;SDS011;22094;52.130;5.598;2023-03-26T02:58:25;62.63;;;10.73;;
23716;SDS011;22094;52.130;5.598;2023-03-26T03:00:53;62.42;;;9.30;;
23716;SDS011;22094;52.130;5.598;2023-03-26T03:03:26;68.35;;;10.05;;
23716;SDS011;22094;52.130;5.598;2023-03-26T03:05:55;72.10;;;10.82;;
23716;SDS011;22094;52.130;5.598;2023-03-26T03:08:22;69.88;;;10.55;;
23716;SDS011;22094;52.130;5.598;2023-03-26T03:10:57;63.80;;;10.65;;
23716;SDS011;22094;52.130;5.598;2023-03-26T03:13:24;69.03;;;11.13;;
23716;SDS011;22094;52.130;5.598;2023-03-26T03:15:50;76.75;;;11.85;;
23716;SDS011;22094;52.130;5.598;2023-03-26T03:18:16;70.03;;;11.90;;
23716;SDS011;22094;52.130;5.598;2023-03-26T03:20:41;86.95;;;13.18;;
23716;SDS011;22094;52.130;5.598;2023-03-26T03:23:08;74.40;;;11.57;;
23716;SDS011;22094;52.130;5.598;2023-03-26T03:25:34;74.60;;;12.85;;
23716;SDS011;22094;52.130;5.598;2023-03-26T03:28:00;71.90;;;12.77;;
23716;SDS011;22094;52.130;5.598;2023-03-26T03:30:26;93.05;;;13.15;;
23716;SDS011;22094;52.130;5.598;2023-03-26T03:32:52;82.50;;;12.73;;
23716;SDS011;22094;52.130;5.598;2023-03-26T03:35:17;86.13;;;13.75;;
23716;SDS011;22094;52.130;5.598;2023-03-26T03:37:43;78.88;;;13.93;;
23716;SDS011;22094;52.130;5.598;2023-03-26T03:40:08;80.32;;;13.00;;
23716;SDS011;22094;52.130;5.598;2023-03-26T03:42:35;73.40;;;13.05;;
23716;SDS011;22094;52.130;5.598;2023-03-26T03:45:02;93.60;;;15.23;;
23716;SDS011;22094;52.130;5.598;2023-03-26T03:47:29;64.78;;;13.00;;
23716;SDS011;22094;52.130;5.598;2023-03-26T03:49:55;67.70;;;13.45;;
23716;SDS011;22094;52.130;5.598;2023-03-26T03:52:23;86.53;;;14.85;;
23716;SDS011;22094;52.130;5.598;2023-03-26T03:54:50;85.50;;;15.65;;
23716;SDS011;22094;52.130;5.598;2023-03-26T03:57:20;84.10;;;15.70;;
23716;SDS011;22094;52.130;5.598;2023-03-26T03:59:46;92.90;;;16.70;;
23716;SDS011;22094;52.130;5.598;2023-03-26T04:02:12;77.07;;;16.58;;
23716;SDS011;22094;52.130;5.598;2023-03-26T04:04:38;88.03;;;18.13;;
23716;SDS011;22094;52.130;5.598;2023-03-26T04:07:04;95.85;;;19.17;;
23716;SDS011;22094;52.130;5.598;2023-03-26T04:09:30;90.03;;;19.55;;
23716;SDS011;22094;52.130;5.598;2023-03-26T04:11:56;82.45;;;19.00;;
23716;SDS011;22094;52.130;5.598;2023-03-26T04:14:21;92.43;;;18.33;;
23716;SDS011;22094;52.130;5.598;2023-03-26T04:16:47;112.95;;;19.42;;
23716;SDS011;22094;52.130;5.598;2023-03-26T04:19:15;83.70;;;17.60;;
23716;SDS011;22094;52.130;5.598;2023-03-26T04:21:41;106.45;;;19.55;;
23716;SDS011;22094;52.130;5.598;2023-03-26T04:24:07;119.72;;;19.92;;
23716;SDS011;22094;52.130;5.598;2023-03-26T04:26:33;79.18;;;17.92;;
23716;SDS011;22094;52.130;5.598;2023-03-26T04:28:59;90.38;;;17.02;;
23716;SDS011;22094;52.130;5.598;2023-03-26T04:31:28;90.50;;;17.02;;
23716;SDS011;22094;52.130;5.598;2023-03-26T04:34:27;62.88;;;15.02;;
23716;SDS011;22094;52.130;5.598;2023-03-26T04:36:50;95.53;;;17.27;;
23716;SDS011;22094;52.130;5.598;2023-03-26T04:39:18;82.55;;;16.27;;
23716;SDS011;22094;52.130;5.598;2023-03-26T04:41:47;98.00;;;17.85;;
23716;SDS011;22094;52.130;5.598;2023-03-26T04:44:13;77.18;;;16.80;;
23716;SDS011;22094;52.130;5.598;2023-03-26T04:46:41;87.95;;;16.10;;
23716;SDS011;22094;52.130;5.598;2023-03-26T04:49:07;80.60;;;17.02;;
23716;SDS011;22094;52.130;5.598;2023-03-26T04:51:37;83.93;;;16.35;;
23716;SDS011;22094;52.130;5.598;2023-03-26T04:54:05;92.00;;;17.00;;
23716;SDS011;22094;52.130;5.598;2023-03-26T04:56:43;88.72;;;15.88;;
23716;SDS011;22094;52.130;5.598;2023-03-26T04:59:28;81.50;;;16.83;;
23716;SDS011;22094;52.130;5.598;2023-03-26T05:01:59;85.20;;;16.58;;
23716;SDS011;22094;52.130;5.598;2023-03-26T05:04:26;83.40;;;18.10;;
23716;SDS011;22094;52.130;5.598;2023-03-26T05:06:53;74.82;;;19.15;;
23716;SDS011;22094;52.130;5.598;2023-03-26T05:09:22;88.90;;;20.23;;
23716;SDS011;22094;52.130;5.598;2023-03-26T05:11:51;92.97;;;18.77;;
23716;SDS011;22094;52.130;5.598;2023-03-26T05:14:17;78.90;;;18.58;;
23716;SDS011;22094;52.130;5.598;2023-03-26T05:16:44;73.32;;;16.45;;
23716;SDS011;22094;52.130;5.598;2023-03-26T05:19:12;81.88;;;17.55;;
23716;SDS011;22094;52.130;5.598;2023-03-26T05:21:38;67.78;;;16.20;;
23716;SDS011;22094;52.130;5.598;2023-03-26T05:24:04;83.30;;;16.75;;
23716;SDS011;22094;52.130;5.598;2023-03-26T05:26:30;96.45;;;17.83;;
23716;SDS011;22094;52.130;5.598;2023-03-26T05:28:57;78.32;;;16.50;;
23716;SDS011;22094;52.130;5.598;2023-03-26T05:31:23;63.58;;;16.63;;
23716;SDS011;22094;52.130;5.598;2023-03-26T05:33:51;82.47;;;16.40;;
23716;SDS011;22094;52.130;5.598;2023-03-26T05:36:20;75.25;;;16.42;;
23716;SDS011;22094;52.130;5.598;2023-03-26T05:38:46;63.88;;;14.60;;
23716;SDS011;22094;52.130;5.598;2023-03-26T05:41:19;70.00;;;14.45;;
23716;SDS011;22094;52.130;5.598;2023-03-26T05:43:45;77.20;;;16.67;;
23716;SDS011;22094;52.130;5.598;2023-03-26T05:46:12;55.17;;;15.13;;
23716;SDS011;22094;52.130;5.598;2023-03-26T05:48:38;80.05;;;16.73;;
23716;SDS011;22094;52.130;5.598;2023-03-26T05:51:06;61.47;;;14.98;;
23716;SDS011;22094;52.130;5.598;2023-03-26T05:53:32;70.05;;;15.60;;
23716;SDS011;22094;52.130;5.598;2023-03-26T05:55:58;73.82;;;16.35;;
23716;SDS011;22094;52.130;5.598;2023-03-26T05:58:24;79.07;;;16.63;;
23716;SDS011;22094;52.130;5.598;2023-03-26T06:00:57;67.80;;;18.08;;
23716;SDS011;22094;52.130;5.598;2023-03-26T06:03:26;73.43;;;16.08;;
23716;SDS011;22094;52.130;5.598;2023-03-26T06:05:52;64.65;;;16.95;;
23716;SDS011;22094;52.130;5.598;2023-03-26T06:08:18;71.97;;;16.52;;
23716;SDS011;22094;52.130;5.598;2023-03-26T06:10:44;74.65;;;16.67;;
23716;SDS011;22094;52.130;5.598;2023-03-26T06:13:10;70.45;;;16.23;;
23716;SDS011;22094;52.130;5.598;2023-03-26T06:15:37;68.38;;;16.00;;
23716;SDS011;22094;52.130;5.598;2023-03-26T06:18:03;70.43;;;16.25;;
23716;SDS011;22094;52.130;5.598;2023-03-26T06:20:28;60.08;;;15.77;;
23716;SDS011;22094;52.130;5.598;2023-03-26T06:22:54;81.22;;;17.17;;
23716;SDS011;22094;52.130;5.598;2023-03-26T06:25:19;82.47;;;16.13;;
23716;SDS011;22094;52.130;5.598;2023-03-26T06:27:45;68.40;;;16.60;;
23716;SDS011;22094;52.130;5.598;2023-03-26T06:30:11;65.68;;;15.25;;
23716;SDS011;22094;52.130;5.598;2023-03-26T06:32:36;67.60;;;15.60;;
23716;SDS011;22094;52.130;5.598;2023-03-26T06:35:02;69.13;;;16.33;;
23716;SDS011;22094;52.130;5.598;2023-03-26T06:37:28;59.25;;;15.00;;
23716;SDS011;22094;52.130;5.598;2023-03-26T06:39:53;65.20;;;17.25;;
23716;SDS011;22094;52.130;5.598;2023-03-26T06:42:19;61.70;;;15.30;;
23716;SDS011;22094;52.130;5.598;2023-03-26T06:44:45;75.88;;;16.00;;
23716;SDS011;22094;52.130;5.598;2023-03-26T06:47:10;74.75;;;17.05;;
23716;SDS011;22094;52.130;5.598;2023-03-26T06:49:36;74.60;;;16.02;;
23716;SDS011;22094;52.130;5.598;2023-03-26T06:52:02;62.58;;;16.05;;
23716;SDS011;22094;52.130;5.598;2023-03-26T06:54:28;59.65;;;14.85;;
23716;SDS011;22094;52.130;5.598;2023-03-26T06:56:53;64.82;;;15.07;;
23716;SDS011;22094;52.130;5.598;2023-03-26T06:59:20;56.45;;;14.90;;
23716;SDS011;22094;52.130;5.598;2023-03-26T07:01:45;73.63;;;16.27;;
23716;SDS011;22094;52.130;5.598;2023-03-26T07:04:11;72.90;;;15.93;;
23716;SDS011;22094;52.130;5.598;2023-03-26T07:06:36;70.63;;;15.85;;
23716;SDS011;22094;52.130;5.598;2023-03-26T07:09:02;59.80;;;15.77;;
23716;SDS011;22094;52.130;5.598;2023-03-26T07:11:28;70.75;;;15.68;;
23716;SDS011;22094;52.130;5.598;2023-03-26T07:13:53;60.78;;;15.65;;
23716;SDS011;22094;52.130;5.598;2023-03-26T07:16:20;63.97;;;15.98;;
23716;SDS011;22094;52.130;5.598;2023-03-26T07:18:46;54.13;;;14.98;;
23716;SDS011;22094;52.130;5.598;2023-03-26T07:21:12;63.83;;;15.75;;
23716;SDS011;22094;52.130;5.598;2023-03-26T07:23:38;61.92;;;16.52;;
23716;SDS011;22094;52.130;5.598;2023-03-26T07:26:14;63.55;;;17.33;;
23716;SDS011;22094;52.130;5.598;2023-03-26T07:28:46;67.05;;;17.63;;
23716;SDS011;22094;52.130;5.598;2023-03-26T07:31:29;64.22;;;16.95;;
23716;SDS011;22094;52.130;5.598;2023-03-26T07:36:51;69.85;;;19.88;;
23716;SDS011;22094;52.130;5.598;2023-03-26T07:48:08;63.63;;;18.13;;
23716;SDS011;22094;52.130;5.598;2023-03-26T07:50:45;67.82;;;18.40;;
23716;SDS011;22094;52.130;5.598;2023-03-26T07:53:12;58.33;;;17.73;;
23716;SDS011;22094;52.130;5.598;2023-03-26T07:58:37;60.80;;;16.80;;
23716;SDS011;22094;52.130;5.598;2023-03-26T08:01:29;56.08;;;16.90;;
23716;SDS011;22094;52.130;5.598;2023-03-26T08:04:30;49.38;;;16.00;;
23716;SDS011;22094;52.130;5.598;2023-03-26T08:07:55;50.88;;;16.38;;
23716;SDS011;22094;52.130;5.598;2023-03-26T08:10:27;48.30;;;15.05;;
23716;SDS011;22094;52.130;5.598;2023-03-26T08:18:51;54.83;;;16.77;;
23716;SDS011;22094;52.130;5.598;2023-03-26T08:21:27;44.53;;;15.38;;
23716;SDS011;22094;52.130;5.598;2023-03-26T08:32:12;56.10;;;17.30;;
23716;SDS011;22094;52.130;5.598;2023-03-26T08:34:38;41.80;;;17.27;;
23716;SDS011;22094;52.130;5.598;2023-03-26T08:37:04;51.88;;;18.30;;
23716;SDS011;22094;52.130;5.598;2023-03-26T08:39:30;50.58;;;18.65;;
23716;SDS011;22094;52.130;5.598;2023-03-26T08:44:42;59.17;;;21.00;;
23716;SDS011;22094;52.130;5.598;2023-03-26T08:47:44;60.55;;;21.98;;
23716;SDS011;22094;52.130;5.598;2023-03-26T08:53:31;65.80;;;23.73;;
23716;SDS011;22094;52.130;5.598;2023-03-26T09:10:05;57.30;;;22.17;;
23716;SDS011;22094;52.130;5.598;2023-03-26T09:13:38;59.33;;;22.92;;
23716;SDS011;22094;52.130;5.598;2023-03-26T09:15:57;58.42;;;24.52;;
23716;SDS011;22094;52.130;5.598;2023-03-26T09:21:26;60.88;;;23.83;;
23716;SDS011;22094;52.130;5.598;2023-03-26T09:26:59;64.28;;;23.88;;
23716;SDS011;22094;52.130;5.598;2023-03-26T09:30:05;63.60;;;24.73;;
23716;SDS011;22094;52.130;5.598;2023-03-26T09:35:31;60.28;;;23.35;;
23716;SDS011;22094;52.130;5.598;2023-03-26T09:41:07;61.40;;;23.52;;
23716;SDS011;22094;52.130;5.598;2023-03-26T09:52:36;49.95;;;19.15;;
23716;SDS011;22094;52.130;5.598;2023-03-26T10:06:25;37.75;;;15.48;;
23716;SDS011;22094;52.130;5.598;2023-03-26T10:22:23;33.50;;;14.40;;
23716;SDS011;22094;52.130;5.598;2023-03-26T10:36:55;23.98;;;10.55;;
23716;SDS011;22094;52.130;5.598;2023-03-26T10:39:35;27.17;;;11.77;;
23716;SDS011;22094;52.130;5.598;2023-03-26T10:42:09;24.45;;;11.68;;
23716;SDS011;22094;52.130;5.598;2023-03-26T10:58:59;29.63;;;9.85;;
23716;SDS011;22094;52.130;5.598;2023-03-26T11:07:17;32.88;;;9.32;;
23716;SDS011;22094;52.130;5.598;2023-03-26T11:12:35;29.85;;;7.90;;
23716;SDS011;22094;52.130;5.598;2023-03-26T11:25:46;17.42;;;6.75;;
23716;SDS011;22094;52.130;5.598;2023-03-26T11:33:47;29.88;;;6.90;;
23716;SDS011;22094;52.130;5.598;2023-03-26T11:36:16;17.13;;;5.70;;
23716;SDS011;22094;52.130;5.598;2023-03-26T11:38:50;20.88;;;6.70;;
23716;SDS011;22094;52.130;5.598;2023-03-26T11:41:19;18.33;;;6.00;;
23716;SDS011;22094;52.130;5.598;2023-03-26T11:43:48;18.42;;;5.97;;
23716;SDS011;22094;52.130;5.598;2023-03-26T11:46:19;17.55;;;5.88;;
23716;SDS011;22094;52.130;5.598;2023-03-26T11:48:48;25.17;;;8.55;;
23716;SDS011;22094;52.130;5.598;2023-03-26T11:51:19;20.02;;;5.22;;
23716;SDS011;22094;52.130;5.598;2023-03-26T11:54:06;20.75;;;6.05;;
23716;SDS011;22094;52.130;5.598;2023-03-26T11:56:51;19.25;;;5.40;;
23716;SDS011;22094;52.130;5.598;2023-03-26T11:59:22;22.25;;;6.75;;
23716;SDS011;22094;52.130;5.598;2023-03-26T12:07:06;17.83;;;4.90;;
23716;SDS011;22094;52.130;5.598;2023-03-26T12:09:50;20.20;;;5.90;;
23716;SDS011;22094;52.130;5.598;2023-03-26T12:12:24;19.45;;;5.22;;
23716;SDS011;22094;52.130;5.598;2023-03-26T12:14:55;14.60;;;5.07;;
23716;SDS011;22094;52.130;5.598;2023-03-26T12:19:58;19.17;;;5.47;;
23716;SDS011;22094;52.130;5.598;2023-03-26T12:22:35;17.75;;;5.55;;
23716;SDS011;22094;52.130;5.598;2023-03-26T12:25:13;24.80;;;5.95;;
23716;SDS011;22094;52.130;5.598;2023-03-26T12:30:20;22.00;;;5.32;;
23716;SDS011;22094;52.130;5.598;2023-03-26T12:32:48;14.05;;;5.05;;
23716;SDS011;22094;52.130;5.598;2023-03-26T12:35:16;21.95;;;6.18;;
23716;SDS011;22094;52.130;5.598;2023-03-26T12:37:44;12.75;;;4.93;;
23716;SDS011;22094;52.130;5.598;2023-03-26T12:42:55;15.60;;;4.10;;
23716;SDS011;22094;52.130;5.598;2023-03-26T12:45:27;15.18;;;3.90;;
23716;SDS011;22094;52.130;5.598;2023-03-26T12:47:56;15.38;;;4.18;;
23716;SDS011;22094;52.130;5.598;2023-03-26T12:50:25;19.40;;;4.35;;
23716;SDS011;22094;52.130;5.598;2023-03-26T12:56:00;18.65;;;5.22;;
23716;SDS011;22094;52.130;5.598;2023-03-26T13:01:14;14.00;;;4.13;;
23716;SDS011;22094;52.130;5.598;2023-03-26T13:04:06;18.40;;;3.58;;
23716;SDS011;22094;52.130;5.598;2023-03-26T13:06:39;16.60;;;3.85;;
23716;SDS011;22094;52.130;5.598;2023-03-26T13:17:25;14.13;;;4.03;;
23716;SDS011;22094;52.130;5.598;2023-03-26T13:23:04;9.00;;;3.25;;
23716;SDS011;22094;52.130;5.598;2023-03-26T13:36:30;13.88;;;3.88;;
23716;SDS011;22094;52.130;5.598;2023-03-26T13:39:22;14.25;;;3.40;;
23716;SDS011;22094;52.130;5.598;2023-03-26T13:42:10;15.63;;;3.92;;
23716;SDS011;22094;52.130;5.598;2023-03-26T13:48:21;9.48;;;3.38;;
23716;SDS011;22094;52.130;5.598;2023-03-26T13:51:07;13.05;;;3.80;;
23716;SDS011;22094;52.130;5.598;2023-03-26T13:53:49;11.82;;;3.10;;
23716;SDS011;22094;52.130;5.598;2023-03-26T13:56:22;15.00;;;4.07;;
23716;SDS011;22094;52.130;5.598;2023-03-26T14:01:57;11.90;;;2.72;;
23716;SDS011;22094;52.130;5.598;2023-03-26T14:04:28;9.93;;;3.20;;
23716;SDS011;22094;52.130;5.598;2023-03-26T14:07:15;10.13;;;2.97;;
23716;SDS011;22094;52.130;5.598;2023-03-26T14:12:38;10.43;;;2.78;;
23716;SDS011;22094;52.130;5.598;2023-03-26T14:18:21;18.67;;;3.20;;
23716;SDS011;22094;52.130;5.598;2023-03-26T14:21:08;10.05;;;2.60;;
23716;SDS011;22094;52.130;5.598;2023-03-26T14:24:05;10.27;;;2.65;;
23716;SDS011;22094;52.130;5.598;2023-03-26T14:26:52;11.70;;;2.92;;
23716;SDS011;22094;52.130;5.598;2023-03-26T14:32:35;9.68;;;2.65;;
23716;SDS011;22094;52.130;5.598;2023-03-26T14:41:45;11.55;;;2.80;;
23716;SDS011;22094;52.130;5.598;2023-03-26T14:49:37;8.32;;;1.98;;
23716;SDS011;22094;52.130;5.598;2023-03-26T14:52:23;13.98;;;2.90;;
23716;SDS011;22094;52.130;5.598;2023-03-26T14:56:01;11.48;;;2.40;;
23716;SDS011;22094;52.130;5.598;2023-03-26T14:58:36;13.38;;;2.55;;
23716;SDS011;22094;52.130;5.598;2023-03-26T15:26:38;12.85;;;3.08;;
23716;SDS011;22094;52.130;5.598;2023-03-26T15:35:49;11.65;;;2.33;;
23716;SDS011;22094;52.130;5.598;2023-03-26T15:49:08;13.23;;;2.83;;
23716;SDS011;22094;52.130;5.598;2023-03-26T15:57:24;15.05;;;3.25;;
23716;SDS011;22094;52.130;5.598;2023-03-26T16:08:24;12.63;;;2.50;;
23716;SDS011;22094;52.130;5.598;2023-03-26T16:10:55;12.32;;;2.80;;
23716;SDS011;22094;52.130;5.598;2023-03-26T16:18:32;8.05;;;2.28;;
23716;SDS011;22094;52.130;5.598;2023-03-26T16:45:37;11.45;;;2.13;;
23716;SDS011;22094;52.130;5.598;2023-03-26T16:48:39;12.30;;;2.35;;
23716;SDS011;22094;52.130;5.598;2023-03-26T16:56:32;10.07;;;2.53;;
23716;SDS011;22094;52.130;5.598;2023-03-26T17:04:50;10.80;;;2.40;;
23716;SDS011;22094;52.130;5.598;2023-03-26T17:07:28;14.68;;;2.35;;
23716;SDS011;22094;52.130;5.598;2023-03-26T17:10:08;10.75;;;2.05;;
23716;SDS011;22094;52.130;5.598;2023-03-26T17:12:46;14.48;;;2.28;;
23716;SDS011;22094;52.130;5.598;2023-03-26T17:21:14;13.90;;;3.45;;
23716;SDS011;22094;52.130;5.598;2023-03-26T17:26:32;8.73;;;2.53;;
23716;SDS011;22094;52.130;5.598;2023-03-26T17:32:18;8.63;;;3.33;;
23716;SDS011;22094;52.130;5.598;2023-03-26T17:37:59;13.20;;;5.45;;
23716;SDS011;22094;52.130;5.598;2023-03-26T17:40:43;8.35;;;2.40;;
23716;SDS011;22094;52.130;5.598;2023-03-26T17:43:31;14.48;;;2.00;;
23716;SDS011;22094;52.130;5.598;2023-03-26T17:45:58;11.55;;;2.72;;
23716;SDS011;22094;52.130;5.598;2023-03-26T17:48:24;9.02;;;2.40;;
23716;SDS011;22094;52.130;5.598;2023-03-26T17:50:57;10.05;;;2.08;;
23716;SDS011;22094;52.130;5.598;2023-03-26T17:53:44;6.35;;;1.77;;
23716;SDS011;22094;52.130;5.598;2023-03-26T17:56:17;12.55;;;2.38;;
23716;SDS011;22094;52.130;5.598;2023-03-26T17:58:48;7.07;;;1.75;;
23716;SDS011;22094;52.130;5.598;2023-03-26T18:04:10;11.30;;;2.42;;
23716;SDS011;22094;52.130;5.598;2023-03-26T18:17:12;10.85;;;2.38;;
23716;SDS011;22094;52.130;5.598;2023-03-26T18:19:47;7.20;;;2.00;;
23716;SDS011;22094;52.130;5.598;2023-03-26T18:22:27;8.93;;;2.22;;
23716;SDS011;22094;52.130;5.598;2023-03-26T18:24:55;9.98;;;1.65;;
23716;SDS011;22094;52.130;5.598;2023-03-26T18:27:23;12.38;;;2.20;;
23716;SDS011;22094;52.130;5.598;2023-03-26T18:29:58;10.48;;;2.00;;
23716;SDS011;22094;52.130;5.598;2023-03-26T18:32:26;8.98;;;1.98;;
23716;SDS011;22094;52.130;5.598;2023-03-26T18:35:01;9.38;;;1.90;;
23716;SDS011;22094;52.130;5.598;2023-03-26T18:37:44;10.00;;;2.45;;
23716;SDS011;22094;52.130;5.598;2023-03-26T18:40:14;8.35;;;2.28;;
23716;SDS011;22094;52.130;5.598;2023-03-26T18:42:44;11.23;;;3.05;;
23716;SDS011;22094;52.130;5.598;2023-03-26T18:45:31;9.10;;;2.95;;
23716;SDS011;22094;52.130;5.598;2023-03-26T18:48:01;11.23;;;3.55;;
23716;SDS011;22094;52.130;5.598;2023-03-26T18:50:29;12.48;;;2.88;;
23716;SDS011;22094;52.130;5.598;2023-03-26T18:53:01;12.15;;;3.22;;
23716;SDS011;22094;52.130;5.598;2023-03-26T18:55:29;10.70;;;2.60;;
23716;SDS011;22094;52.130;5.598;2023-03-26T18:57:58;11.98;;;2.85;;
23716;SDS011;22094;52.130;5.598;2023-03-26T19:00:24;9.35;;;3.78;;
23716;SDS011;22094;52.130;5.598;2023-03-26T19:03:12;9.27;;;3.70;;
23716;SDS011;22094;52.130;5.598;2023-03-26T19:05:41;8.30;;;2.92;;
23716;SDS011;22094;52.130;5.598;2023-03-26T19:08:07;11.20;;;2.63;;
23716;SDS011;22094;52.130;5.598;2023-03-26T19:10:34;11.23;;;2.20;;
23716;SDS011;22094;52.130;5.598;2023-03-26T19:13:01;11.02;;;2.47;;
23716;SDS011;22094;52.130;5.598;2023-03-26T19:15:31;12.85;;;2.63;;
23716;SDS011;22094;52.130;5.598;2023-03-26T19:17:59;13.43;;;2.85;;
23716;SDS011;22094;52.130;5.598;2023-03-26T19:20:41;8.98;;;2.15;;
23716;SDS011;22094;52.130;5.598;2023-03-26T19:23:19;9.68;;;2.55;;
23716;SDS011;22094;52.130;5.598;2023-03-26T19:25:56;13.20;;;2.65;;
23716;SDS011;22094;52.130;5.598;2023-03-26T19:28:27;9.93;;;2.63;;
23716;SDS011;22094;52.130;5.598;2023-03-26T19:31:05;12.70;;;2.30;;
23716;SDS011;22094;52.130;5.598;2023-03-26T19:33:34;9.40;;;2.15;;
23716;SDS011;22094;52.130;5.598;2023-03-26T19:36:03;9.70;;;2.35;;
23716;SDS011;22094;52.130;5.598;2023-03-26T19:38:44;10.00;;;1.98;;
23716;SDS011;22094;52.130;5.598;2023-03-26T19:43:53;9.73;;;2.70;;
23716;SDS011;22094;52.130;5.598;2023-03-26T19:46:23;14.25;;;2.50;;
23716;SDS011;22094;52.130;5.598;2023-03-26T19:48:51;10.52;;;2.13;;
23716;SDS011;22094;52.130;5.598;2023-03-26T19:51:30;11.02;;;3.35;;
23716;SDS011;22094;52.130;5.598;2023-03-26T19:53:57;14.82;;;2.55;;
23716;SDS011;22094;52.130;5.598;2023-03-26T19:56:27;17.95;;;2.50;;
23716;SDS011;22094;52.130;5.598;2023-03-26T19:58:53;10.48;;;2.63;;
23716;SDS011;22094;52.130;5.598;2023-03-26T20:01:20;10.82;;;2.30;;
23716;SDS011;22094;52.130;5.598;2023-03-26T20:03:49;12.90;;;2.53;;
23716;SDS011;22094;52.130;5.598;2023-03-26T20:06:19;9.02;;;2.53;;
23716;SDS011;22094;52.130;5.598;2023-03-26T20:08:46;11.98;;;2.70;;
23716;SDS011;22094;52.130;5.598;2023-03-26T20:11:17;11.23;;;2.65;;
23716;SDS011;22094;52.130;5.598;2023-03-26T20:13:45;10.43;;;2.40;;
23716;SDS011;22094;52.130;5.598;2023-03-26T20:18:43;10.13;;;2.30;;
23716;SDS011;22094;52.130;5.598;2023-03-26T20:21:12;15.23;;;2.15;;
23716;SDS011;22094;52.130;5.598;2023-03-26T20:23:38;10.05;;;2.40;;
23716;SDS011;22094;52.130;5.598;2023-03-26T20:26:04;9.82;;;2.22;;
23716;SDS011;22094;52.130;5.598;2023-03-26T20:28:35;11.40;;;2.40;;
23716;SDS011;22094;52.130;5.598;2023-03-26T20:31:01;10.40;;;2.15;;
23716;SDS011;22094;52.130;5.598;2023-03-26T20:33:27;12.30;;;1.95;;
23716;SDS011;22094;52.130;5.598;2023-03-26T20:35:53;10.63;;;2.20;;
23716;SDS011;22094;52.130;5.598;2023-03-26T20:38:19;9.45;;;2.30;;
23716;SDS011;22094;52.130;5.598;2023-03-26T20:40:45;7.88;;;2.05;;
23716;SDS011;22094;52.130;5.598;2023-03-26T20:43:12;7.15;;;2.05;;
23716;SDS011;22094;52.130;5.598;2023-03-26T20:45:39;10.45;;;2.38;;
23716;SDS011;22094;52.130;5.598;2023-03-26T20:48:05;6.68;;;1.73;;
23716;SDS011;22094;52.130;5.598;2023-03-26T20:50:34;15.38;;;1.98;;
23716;SDS011;22094;52.130;5.598;2023-03-26T20:53:00;10.32;;;2.15;;
23716;SDS011;22094;52.130;5.598;2023-03-26T20:55:26;18.80;;;2.00;;
23716;SDS011;22094;52.130;5.598;2023-03-26T20:57:52;12.80;;;2.00;;
23716;SDS011;22094;52.130;5.598;2023-03-26T21:00:19;16.95;;;2.30;;
23716;SDS011;22094;52.130;5.598;2023-03-26T21:02:48;10.00;;;1.75;;